Terminal Aerodrome Forecast
Issued by NWS Mobile, AL

Home | Current Version | Previous Version | Text Only | Print | Product List | Glossary On
Versions: 1 2 3 4 5 6 7 8 9 10 11 12 13 14 15 16 17 18 19
000
FTUS44 KMOB 201136
TAFMOB
TAF
KMOB 201136Z 2012/2112 13011KT P6SM BKN004
     FM201400 13012KT P6SM OVC012
     FM201700 14018G25KT P6SM VCSH BKN025
     FM210000 14012KT 4SM BR OVC010
     FM210400 14010KT 4SM BR OVC003=

USA.gov is the U.S. government's official web portal to all federal, state and local government web resources and services.